createdAt,value
2023-03-22T00:00:48.431Z,11.62
2023-03-22T00:05:54.620Z,11.44
2023-03-22T00:11:00.907Z,12.08
2023-03-22T00:16:07.381Z,12.07
2023-03-22T00:21:13.574Z,11.93
2023-03-22T00:26:19.650Z,11.81
2023-03-22T00:31:26.001Z,12.01
2023-03-22T00:36:32.097Z,12.19
2023-03-22T00:41:38.470Z,11.98
2023-03-22T00:46:44.574Z,12.95
2023-03-22T00:51:50.958Z,13.60
2023-03-22T00:56:57.093Z,13.93
2023-03-22T01:02:03.271Z,14.81
2023-03-22T01:07:09.364Z,15.69
2023-03-22T01:12:15.666Z,16.34
2023-03-22T01:18:26.412Z,18.18
2023-03-22T01:23:32.892Z,16.98
2023-03-22T01:28:39.056Z,16.78
2023-03-22T01:33:45.311Z,17.20
2023-03-22T01:38:51.558Z,16.97
2023-03-22T01:43:57.837Z,15.22
2023-03-22T01:49:03.957Z,15.80
2023-03-22T01:54:10.143Z,16.06
2023-03-22T01:59:16.215Z,14.73
2023-03-22T02:04:22.467Z,14.68
2023-03-22T02:09:28.596Z,14.49
2023-03-22T02:14:34.953Z,14.18
2023-03-22T02:19:41.217Z,13.56
2023-03-22T02:24:47.572Z,12.33
2023-03-22T02:29:53.685Z,11.32
2023-03-22T02:35:00.061Z,11.54
2023-03-22T02:40:06.256Z,10.40
2023-03-22T02:45:12.559Z,10.51
2023-03-22T02:50:18.653Z,10.53
2023-03-22T02:55:24.855Z,9.64
2023-03-22T03:00:31.105Z,9.47
2023-03-22T03:05:37.239Z,9.26
2023-03-22T03:10:43.421Z,8.74
2023-03-22T03:15:49.626Z,8.10
2023-03-22T03:20:55.811Z,7.87
2023-03-22T03:26:02.011Z,7.39
2023-03-22T03:31:08.173Z,7.47
2023-03-22T03:36:14.400Z,7.33
2023-03-22T03:41:20.483Z,6.81
2023-03-22T03:46:26.757Z,6.77
2023-03-22T03:51:32.813Z,6.28
2023-03-22T03:56:38.974Z,6.65
2023-03-22T04:01:45.333Z,5.86
2023-03-22T04:06:51.671Z,6.12
2023-03-22T04:11:57.747Z,5.92
2023-03-22T04:17:04.077Z,5.99
2023-03-22T04:22:10.165Z,5.88
2023-03-22T04:27:16.466Z,5.91
2023-03-22T04:32:22.587Z,5.99
2023-03-22T04:37:28.759Z,5.77
2023-03-22T04:42:34.963Z,5.49
2023-03-22T04:47:41.434Z,6.01
2023-03-22T04:52:47.589Z,5.78
2023-03-22T04:57:53.956Z,5.44
2023-03-22T05:03:00.123Z,5.15
2023-03-22T05:08:06.429Z,5.39
2023-03-22T05:13:12.612Z,5.54
2023-03-22T05:18:18.851Z,6.16
2023-03-22T05:23:24.945Z,6.16
2023-03-22T05:28:31.278Z,6.68
2023-03-22T05:33:37.372Z,7.28
2023-03-22T05:38:43.786Z,7.35
2023-03-22T05:43:49.866Z,8.11
2023-03-22T05:48:56.879Z,9.52
2023-03-22T05:54:02.962Z,9.35
2023-03-22T05:59:09.334Z,10.96
2023-03-22T06:04:15.481Z,10.89
2023-03-22T06:09:21.676Z,11.89
2023-03-22T06:14:27.819Z,12.35
2023-03-22T06:19:34.119Z,12.27
2023-03-22T06:24:40.205Z,12.64
2023-03-22T06:29:46.477Z,12.69
2023-03-22T06:34:52.581Z,12.65
2023-03-22T06:39:58.759Z,12.95
2023-03-22T06:45:04.895Z,12.96
2023-03-22T06:50:11.098Z,13.72
2023-03-22T06:55:17.201Z,13.28
2023-03-22T07:00:23.392Z,12.94
2023-03-22T07:05:29.491Z,12.63
2023-03-22T07:10:35.678Z,11.71
2023-03-22T07:15:41.862Z,11.44
2023-03-22T07:20:48.030Z,11.76
2023-03-22T07:25:54.118Z,11.31
2023-03-22T07:31:00.348Z,10.92
2023-03-22T07:36:06.511Z,10.63
2023-03-22T07:41:12.697Z,10.14
2023-03-22T07:46:19.100Z,9.67
2023-03-22T07:51:25.072Z,9.34
2023-03-22T07:56:31.212Z,8.80
2023-03-22T08:01:37.526Z,8.07
2023-03-22T08:06:43.570Z,8.91
2023-03-22T08:11:49.972Z,7.78
2023-03-22T08:16:55.997Z,8.03
2023-03-22T08:22:02.207Z,7.07
2023-03-22T08:27:08.406Z,7.31
2023-03-22T08:32:14.592Z,7.63
2023-03-22T08:37:20.804Z,7.42
2023-03-22T08:42:26.994Z,7.27
2023-03-22T08:47:33.185Z,7.29
2023-03-22T08:52:39.490Z,6.16
2023-03-22T08:57:45.889Z,6.64
2023-03-22T09:02:52.074Z,5.92
2023-03-22T09:08:05.799Z,5.58
2023-03-22T09:13:03.956Z,5.49
2023-03-22T09:18:10.095Z,5.41
2023-03-22T09:23:16.298Z,5.35
2023-03-22T09:28:22.493Z,5.72
2023-03-22T09:33:28.555Z,4.77
2023-03-22T09:38:34.722Z,4.85
2023-03-22T09:43:40.901Z,4.32
2023-03-22T09:48:48.340Z,4.18
2023-03-22T09:53:52.650Z,3.92
2023-03-22T09:58:58.877Z,3.39
2023-03-22T10:04:05.189Z,3.84
2023-03-22T10:09:11.317Z,3.08
2023-03-22T10:14:17.650Z,2.96
2023-03-22T10:19:23.746Z,3.13
2023-03-22T10:24:30.027Z,2.81
2023-03-22T10:29:36.106Z,2.68
2023-03-22T10:34:42.268Z,2.89
2023-03-22T10:39:48.503Z,2.63
2023-03-22T10:44:54.747Z,2.73
2023-03-22T10:50:00.851Z,2.96
2023-03-22T10:55:07.546Z,3.06
2023-03-22T11:00:13.702Z,2.73
2023-03-22T11:05:19.969Z,2.32
2023-03-22T11:10:26.133Z,3.16
2023-03-22T11:15:32.331Z,2.88
2023-03-22T11:20:38.669Z,2.98
2023-03-22T11:25:44.588Z,2.79
2023-03-22T11:30:50.658Z,2.86
2023-03-22T11:35:56.899Z,2.94
2023-03-22T11:41:02.986Z,3.18
2023-03-22T11:46:09.366Z,3.18
2023-03-22T11:51:15.431Z,3.24
2023-03-22T11:56:21.727Z,3.47
2023-03-22T12:01:27.681Z,3.62
2023-03-22T12:06:33.953Z,3.47
2023-03-22T12:11:39.977Z,3.44
2023-03-22T12:16:46.255Z,3.90
2023-03-22T12:21:52.236Z,3.97
2023-03-22T12:26:58.549Z,3.69
2023-03-22T12:32:04.594Z,3.50
2023-03-22T12:37:10.817Z,3.26
2023-03-22T12:42:16.968Z,3.95
2023-03-22T12:47:23.196Z,3.56
2023-03-22T12:52:34.708Z,3.56
2023-03-22T12:57:35.098Z,3.62
2023-03-22T13:02:41.371Z,3.61
2023-03-22T13:07:47.537Z,3.73
2023-03-22T13:12:53.618Z,3.40
2023-03-22T13:17:59.971Z,3.02
2023-03-22T13:23:05.938Z,3.23
2023-03-22T13:28:12.099Z,3.02
2023-03-22T13:33:18.283Z,3.04
2023-03-22T13:38:26.667Z,3.23
2023-03-22T13:43:32.800Z,3.09
2023-03-22T13:48:39.019Z,3.28
2023-03-22T13:53:45.068Z,3.45
2023-03-22T13:58:51.311Z,3.59
2023-03-22T14:04:00.215Z,3.59
2023-03-22T14:09:06.350Z,3.79
2023-03-22T14:14:12.478Z,3.36
2023-03-22T14:19:18.643Z,3.23
